South Carver, Massachusetts
Current Conditions -  °F | °C
As of 1:52 PM on Tuesday 27 Jan 2015 (Local Time) from KPYM Reporting Station
Haze Haze  
Wind Chill:   Ceiling: 400
Heat Index: 17°   Visibility: 1mi
Dew Point: 14°   Wind: 18mph
Humidity: 88%   Direction: 320°NW
Pressure: 29.4"   Gusts: 30mph
Location:  41.84°N, 70.75°W
Report Text: KPYM 271852Z AUTO 32016G26KT 1SM BR VV004 M08/M10 A2940 RMK AO2 PK WND 01044/1801 SLP957 T10831100 PWINO FZRANO $
Loading
Personal Weather Stations






























Interactive Weather Map New forecast layout! Learn more

10-Day Weather Forecast

Advertisements
Track Severe Weather on mobile